Time;durP1;ratioP1;P1;durP2;ratioP2;P2;SDS_P1;SDS_P2;PMS_P1;PMS_P2;Temp;Humidity;BMP_temperature;BMP_pressure;BME280_temperature;BME280_humidity;BME280_pressure;Samples;Min_cycle;Max_cycle;Signal;HPM_P1;HPM_P2
2022/01/20 00:02:06;;;;;;;1999.90;999.90;;;4.20;99.90;;;;;;5055386;28;20048;-65
2022/01/20 00:04:49;;;;;;;1999.90;999.90;;;4.10;99.90;;;;;;5060617;28;20055;-65
2022/01/20 00:07:28;;;;;;;1999.90;999.90;;;4.10;99.90;;;;;;5075832;28;20048;-65
2022/01/20 00:23:08;;;;;;;1999.90;999.90;;;4.10;99.90;;;;;;5076002;28;20048;-65
2022/01/20 00:23:43;;;;;;;1999.90;999.90;;;3.40;99.90;;;;;;5054503;28;20075;-65
2022/01/20 00:26:14;;;;;;;1999.90;999.90;;;3.40;99.90;;;;;;5056375;28;20399;-65
2022/01/20 00:28:44;;;;;;;1999.90;999.90;;;3.40;99.90;;;;;;5055273;28;20051;-65
2022/01/20 00:33:48;;;;;;;1999.90;999.90;;;3.30;99.90;;;;;;5076110;28;20404;-65
2022/01/20 00:38:58;;;;;;;1999.90;999.90;;;3.30;99.90;;;;;;5074369;28;20083;-65
2022/01/20 00:41:23;;;;;;;1999.90;999.90;;;3.40;99.90;;;;;;5075621;28;20473;-64
2022/01/20 00:43:49;;;;;;;1999.90;999.90;;;3.40;99.90;;;;;;5057656;28;20076;-64
2022/01/20 00:46:15;;;;;;;1999.90;999.90;;;3.30;99.90;;;;;;5035719;28;20084;-64
2022/01/20 00:48:40;;;;;;;1999.90;999.90;;;3.30;99.90;;;;;;5042736;28;20048;-65
2022/01/20 00:51:08;;;;;;;1999.90;999.90;;;3.30;99.90;;;;;;5074948;28;20449;-65
2022/01/20 00:53:34;;;;;;;1999.90;999.90;;;3.40;99.90;;;;;;5075469;28;20099;-64
2022/01/20 00:56:00;;;;;;;1999.90;999.90;;;3.40;99.90;;;;;;5074625;28;20040;-65
2022/01/20 00:58:26;;;;;;;1999.90;999.90;;;3.40;99.90;;;;;;5074342;28;20049;-64
2022/01/20 01:00:53;;;;;;;1999.90;999.90;;;3.40;99.90;;;;;;5075423;28;20055;-64
2022/01/20 01:03:21;;;;;;;1999.90;999.90;;;3.40;99.90;;;;;;5074801;28;20040;-64
2022/01/20 01:06:02;;;;;;;1999.90;999.90;;;3.50;99.90;;;;;;5059780;28;20080;-65
2022/01/20 01:08:28;;;;;;;1999.90;999.90;;;3.60;99.90;;;;;;5034058;28;20053;-65
2022/01/20 01:10:54;;;;;;;1999.90;999.90;;;3.70;99.90;;;;;;5033263;28;20052;-64
2022/01/20 01:13:21;;;;;;;1999.90;999.90;;;3.70;99.90;;;;;;5035523;28;20476;-65
2022/01/20 01:15:49;;;;;;;1999.90;999.90;;;3.70;99.90;;;;;;5068527;28;20056;-66
2022/01/20 01:23:32;;;;;;;1999.90;999.90;;;3.70;99.90;;;;;;5047300;28;20136;-66
2022/01/20 01:25:59;;;;;;;1999.90;999.90;;;3.70;99.90;;;;;;5073133;28;20044;-65
2022/01/20 01:28:29;;;;;;;1999.90;999.90;;;3.60;99.90;;;;;;5075216;28;20426;-66
2022/01/20 01:31:29;;;;;;;1999.90;999.90;;;3.70;99.90;;;;;;5056279;28;20044;-65
2022/01/20 01:34:01;;;;;;;1999.90;999.90;;;3.60;99.90;;;;;;5065399;28;20049;-65
2022/01/20 01:36:28;;;;;;;1999.90;999.90;;;3.50;99.90;;;;;;5073579;28;20049;-65
2022/01/20 01:38:54;;;;;;;1999.90;999.90;;;3.50;99.90;;;;;;5072734;28;20363;-65
2022/01/20 01:41:32;;;;;;;1999.90;999.90;;;3.40;99.90;;;;;;5073648;28;20037;-65
2022/01/20 01:44:03;;;;;;;1999.90;999.90;;;3.40;99.90;;;;;;5054916;28;20049;-65
2022/01/20 01:46:29;;;;;;;1999.90;999.90;;;3.40;99.90;;;;;;5033594;28;20546;-64
2022/01/20 01:48:57;;;;;;;1999.90;999.90;;;3.40;99.90;;;;;;5033542;28;20099;-64
2022/01/20 01:51:24;;;;;;;1999.90;999.90;;;3.40;99.90;;;;;;5053045;28;20041;-66
2022/01/20 01:53:50;;;;;;;1999.90;999.90;;;3.60;99.90;;;;;;5072115;28;20423;-68
2022/01/20 01:56:17;;;;;;;1999.90;999.90;;;3.60;99.90;;;;;;5073274;28;20554;-65
2022/01/20 01:58:43;;;;;;;1999.90;999.90;;;3.70;99.90;;;;;;5073052;28;20560;-65
2022/01/20 02:01:14;;;;;;;1999.90;999.90;;;3.70;99.90;;;;;;5071715;28;20036;-66
2022/01/20 02:03:46;;;;;;;1999.90;999.90;;;3.80;99.90;;;;;;5073303;28;20051;-65
2022/01/20 02:06:49;;;;;;;1999.90;999.90;;;3.80;99.90;;;;;;5033122;28;20060;-66
2022/01/20 02:19:57;;;;;;;1999.90;999.90;;;3.80;99.90;;;;;;5055864;28;20041;-66
2022/01/20 02:22:37;;;;;;;1999.90;999.90;;;3.90;99.90;;;;;;5033854;28;20128;-66
2022/01/20 02:25:23;;;;;;;1999.90;999.90;;;3.70;99.90;;;;;;5035983;28;20106;-66
2022/01/20 02:27:50;;;;;;;1999.90;999.90;;;3.60;99.90;;;;;;5053055;28;20147;-67
2022/01/20 02:30:17;;;;;;;1999.90;999.90;;;3.50;99.90;;;;;;5060506;28;20455;-67
2022/01/20 02:32:52;;;;;;;1999.90;999.90;;;3.40;99.90;;;;;;5052703;28;20391;-65
2022/01/20 02:35:19;;;;;;;1999.90;999.90;;;3.40;99.90;;;;;;5059862;28;20032;-65
2022/01/20 02:37:48;;;;;;;1999.90;999.90;;;3.40;99.90;;;;;;5055397;28;20060;-65
2022/01/20 02:45:46;;;;;;;1999.90;999.90;;;3.40;99.90;;;;;;5051823;28;20103;-66
2022/01/20 02:48:13;;;;;;;1999.90;999.90;;;3.40;99.90;;;;;;5053672;28;20414;-65
2022/01/20 02:50:39;;;;;;;1999.90;999.90;;;3.40;99.90;;;;;;5051362;28;20063;-65
2022/01/20 02:53:04;;;;;;;1999.90;999.90;;;3.40;99.90;;;;;;5059339;28;20470;-66
2022/01/20 02:55:30;;;;;;;1999.90;999.90;;;3.40;99.90;;;;;;5073450;28;20050;-64
2022/01/20 02:57:56;;;;;;;1999.90;999.90;;;3.30;99.90;;;;;;5072442;28;20048;-66
2022/01/20 03:00:22;;;;;;;1999.90;999.90;;;3.30;99.90;;;;;;5073134;28;20052;-66
2022/01/20 03:02:49;;;;;;;1999.90;999.90;;;3.30;99.90;;;;;;5072582;28;20052;-65
2022/01/20 03:05:15;;;;;;;1999.90;999.90;;;3.30;99.90;;;;;;5060748;28;20096;-65
2022/01/20 03:07:46;;;;;;;1999.90;999.90;;;3.40;99.90;;;;;;5052959;28;20053;-66
2022/01/20 03:10:11;;;;;;;1999.90;999.90;;;3.50;99.90;;;;;;5053741;28;20109;-65
2022/01/20 03:12:39;;;;;;;1999.90;999.90;;;3.50;99.90;;;;;;5071987;28;20052;-66
2022/01/20 03:15:05;;;;;;;1999.90;999.90;;;3.50;99.90;;;;;;5059488;28;20433;-66
2022/01/20 03:17:32;;;;;;;1999.90;999.90;;;3.60;99.90;;;;;;5051340;28;20132;-64
2022/01/20 03:19:59;;;;;;;1999.90;999.90;;;3.60;99.90;;;;;;5063062;28;20098;-66
2022/01/20 03:22:26;;;;;;;1999.90;999.90;;;3.60;99.90;;;;;;5069876;28;20383;-65
2022/01/20 03:24:53;;;;;;;1999.90;999.90;;;3.50;99.90;;;;;;5052334;28;20037;-65
2022/01/20 03:27:19;;;;;;;1999.90;999.90;;;3.50;99.90;;;;;;5034940;28;20061;-65
2022/01/20 03:29:45;;;;;;;1999.90;999.90;;;3.50;99.90;;;;;;5061444;28;20044;-65
2022/01/20 03:32:10;;;;;;;1999.90;999.90;;;3.60;99.90;;;;;;5050856;28;20154;-66
2022/01/20 03:34:36;;;;;;;1999.90;999.90;;;3.60;99.90;;;;;;5052884;28;20384;-65
2022/01/20 03:37:08;;;;;;;1999.90;999.90;;;3.70;99.90;;;;;;5056980;28;20086;-66
2022/01/20 03:39:44;;;;;;;1999.90;999.90;;;3.70;99.90;;;;;;5070973;28;20045;-67
2022/01/20 03:42:09;;;;;;;1999.90;999.90;;;3.80;99.90;;;;;;5071829;28;20036;-65
2022/01/20 03:44:36;;;;;;;1999.90;999.90;;;3.80;99.90;;;;;;5025718;28;20056;-65
2022/01/20 03:47:03;;;;;;;1999.90;999.90;;;3.70;99.90;;;;;;5059947;28;20400;-65
2022/01/20 03:49:37;;;;;;;1999.90;999.90;;;3.80;99.90;;;;;;5071401;28;20215;-66
2022/01/20 03:52:05;;;;;;;1999.90;999.90;;;3.80;99.90;;;;;;5070766;28;20047;-65
2022/01/20 03:54:32;;;;;;;1999.90;999.90;;;3.80;99.90;;;;;;5071121;28;20032;-64
2022/01/20 03:57:16;;;;;;;1999.90;999.90;;;3.80;99.90;;;;;;5072906;28;20422;-65
2022/01/20 04:00:09;;;;;;;1999.90;999.90;;;3.80;99.90;;;;;;5071599;28;20064;-65
2022/01/20 04:02:44;;;;;;;1999.90;999.90;;;3.80;99.90;;;;;;5071490;28;20372;-64
2022/01/20 04:05:44;;;;;;;1999.90;999.90;;;3.80;99.90;;;;;;5051939;28;20053;-65
2022/01/20 04:08:31;;;;;;;1999.90;999.90;;;3.80;99.90;;;;;;5048100;28;20120;-65
2022/01/20 04:10:58;;;;;;;1999.90;999.90;;;3.80;99.90;;;;;;5051867;28;20087;-66
2022/01/20 04:13:29;;;;;;;1999.90;999.90;;;3.80;99.90;;;;;;5034575;28;20053;-65
2022/01/20 04:15:59;;;;;;;1999.90;999.90;;;3.80;99.90;;;;;;5069969;28;20067;-66
2022/01/20 04:18:27;;;;;;;1999.90;999.90;;;3.80;99.90;;;;;;5069871;28;20495;-65
2022/01/20 04:20:53;;;;;;;1999.90;999.90;;;3.80;99.90;;;;;;5068543;28;20056;-65
2022/01/20 04:23:19;;;;;;;1999.90;999.90;;;3.70;99.90;;;;;;5063437;28;20474;-65
2022/01/20 04:25:45;;;;;;;1999.90;999.90;;;3.60;99.90;;;;;;5051292;28;20037;-65
2022/01/20 04:28:11;;;;;;;1999.90;999.90;;;3.50;99.90;;;;;;5051139;28;20517;-65
2022/01/20 04:30:37;;;;;;;1999.90;999.90;;;3.50;99.90;;;;;;5060810;28;20048;-65
2022/01/20 04:33:03;;;;;;;1999.90;999.90;;;3.50;99.90;;;;;;5072140;28;20049;-65
2022/01/20 04:35:30;;;;;;;1999.90;999.90;;;3.50;99.90;;;;;;5073622;28;20049;-64
2022/01/20 04:37:58;;;;;;;1999.90;999.90;;;3.60;99.90;;;;;;5058257;28;20145;-63
2022/01/20 04:40:24;;;;;;;1999.90;999.90;;;3.70;99.90;;;;;;5074204;28;20067;-65
2022/01/20 04:42:51;;;;;;;1999.90;999.90;;;3.60;99.90;;;;;;5074776;28;20483;-64
2022/01/20 04:45:24;;;;;;;1999.90;999.90;;;3.40;99.90;;;;;;5034441;28;20049;-64
2022/01/20 04:48:02;;;;;;;1999.90;999.90;;;3.20;99.90;;;;;;5044999;28;20072;-65
2022/01/20 04:58:42;;;;;;;1999.90;999.90;;;2.60;99.90;;;;;;5074217;28;20045;-66
2022/01/20 05:01:08;;;;;;;1999.90;999.90;;;2.50;99.90;;;;;;5075495;28;20047;-65
2022/01/20 05:04:02;;;;;;;1999.90;999.90;;;2.50;99.90;;;;;;5072567;28;20036;-64
2022/01/20 05:06:49;;;;;;;1999.90;999.90;;;2.50;99.90;;;;;;5070457;28;20113;-64
2022/01/20 05:09:21;;;;;;;1999.90;999.90;;;2.40;99.90;;;;;;5075251;28;20452;-65
2022/01/20 05:11:59;;;;;;;1999.90;999.90;;;2.40;99.90;;;;;;5073165;28;20044;-65
2022/01/20 05:14:27;;;;;;;1999.90;999.90;;;2.40;99.90;;;;;;5073060;28;20041;-65
2022/01/20 05:16:55;;;;;;;1999.90;999.90;;;2.20;99.90;;;;;;5073472;28;20529;-65
2022/01/20 05:19:24;;;;;;;1999.90;999.90;;;2.10;99.90;;;;;;5061088;28;20053;-64
2022/01/20 05:21:50;;;;;;;1999.90;999.90;;;2.00;99.90;;;;;;5034203;28;20049;-65
2022/01/20 05:24:24;;;;;;;1999.90;999.90;;;2.10;99.90;;;;;;5067524;28;20181;-64
2022/01/20 05:26:54;;;;;;;1999.90;999.90;;;2.10;99.90;;;;;;5073538;28;20041;-65
2022/01/20 05:29:21;;;;;;;1999.90;999.90;;;2.10;99.90;;;;;;5052482;28;20144;-64
2022/01/20 05:31:49;;;;;;;1999.90;999.90;;;2.20;99.90;;;;;;5055472;28;20041;-64
2022/01/20 05:34:15;;;;;;;1999.90;999.90;;;2.30;99.90;;;;;;5073586;28;20079;-66
2022/01/20 05:36:42;;;;;;;1999.90;999.90;;;2.30;99.90;;;;;;5073650;28;20051;-65
2022/01/20 05:39:09;;;;;;;1999.90;999.90;;;2.20;99.90;;;;;;5072784;28;20510;-65
2022/01/20 05:41:35;;;;;;;1999.90;999.90;;;2.10;99.90;;;;;;5073775;28;20513;-65
2022/01/20 05:44:10;;;;;;;1999.90;999.90;;;1.80;99.90;;;;;;5051818;28;20108;-65
2022/01/20 05:46:39;;;;;;;1999.90;999.90;;;1.70;99.90;;;;;;5032066;28;20121;-64
2022/01/20 05:49:11;;;;;;;1999.90;999.90;;;1.70;99.90;;;;;;5032844;28;20526;-65
2022/01/20 05:51:52;;;;;;;1999.90;999.90;;;1.70;99.90;;;;;;5032776;28;20047;-64
2022/01/20 05:54:19;;;;;;;1999.90;999.90;;;1.70;99.90;;;;;;5033141;28;20049;-65
2022/01/20 05:56:45;;;;;;;1999.90;999.90;;;1.90;99.90;;;;;;5033200;28;20045;-64
2022/01/20 05:59:11;;;;;;;1999.90;999.90;;;1.80;99.90;;;;;;5051193;28;20037;-64
2022/01/20 06:01:38;;;;;;;1999.90;999.90;;;1.80;99.90;;;;;;5073406;28;20056;-64
2022/01/20 06:04:08;;;;;;;1999.90;999.90;;;1.90;99.90;;;;;;5071196;28;20048;-64
2022/01/20 06:06:35;;;;;;;1999.90;999.90;;;1.90;99.90;;;;;;5052010;28;20128;-65
2022/01/20 06:09:04;;;;;;;1999.90;999.90;;;2.00;99.90;;;;;;5087367;28;20106;-65
2022/01/20 06:11:31;;;;;;;1999.90;999.90;;;2.20;99.90;;;;;;5074209;28;20110;-64
2022/01/20 06:13:57;;;;;;;1999.90;999.90;;;2.30;99.90;;;;;;5070917;28;20170;-64
2022/01/20 06:16:23;;;;;;;1999.90;999.90;;;2.30;99.90;;;;;;5058236;28;20537;-64
2022/01/20 06:18:50;;;;;;;1999.90;999.90;;;2.40;99.90;;;;;;5064454;28;20045;-64
2022/01/20 06:21:17;;;;;;;1999.90;999.90;;;2.40;99.90;;;;;;5033047;28;20085;-64
2022/01/20 06:23:43;;;;;;;1999.90;999.90;;;2.40;99.90;;;;;;5043813;28;20080;-65
2022/01/20 06:26:09;;;;;;;1999.90;999.90;;;2.40;99.90;;;;;;5052475;28;20095;-65
2022/01/20 06:28:37;;;;;;;1999.90;999.90;;;2.40;99.90;;;;;;5035166;28;20053;-64
2022/01/20 06:31:05;;;;;;;1999.90;999.90;;;2.50;99.90;;;;;;5052637;28;20468;-64
2022/01/20 06:33:31;;;;;;;1999.90;999.90;;;2.50;99.90;;;;;;5052471;28;20052;-65
2022/01/20 06:35:59;;;;;;;1999.90;999.90;;;2.50;99.90;;;;;;5071886;28;20052;-64
2022/01/20 06:38:26;;;;;;;1999.90;999.90;;;2.50;99.90;;;;;;5055689;28;20109;-64
2022/01/20 06:40:54;;;;;;;1999.90;999.90;;;2.60;99.90;;;;;;5071448;28;20124;-65
2022/01/20 06:43:20;;;;;;;1999.90;999.90;;;2.70;99.90;;;;;;5062794;28;20116;-63
2022/01/20 06:45:47;;;;;;;1999.90;999.90;;;2.70;99.90;;;;;;5052431;28;20475;-64
2022/01/20 06:48:17;;;;;;;1999.90;999.90;;;2.80;99.90;;;;;;5051030;28;20128;-65
2022/01/20 06:51:03;;;;;;;1999.90;999.90;;;2.80;99.90;;;;;;5053140;28;20048;-66
2022/01/20 06:53:29;;;;;;;1999.90;999.90;;;2.80;99.90;;;;;;5038165;28;20056;-64
2022/01/20 06:55:54;;;;;;;1999.90;999.90;;;2.90;99.90;;;;;;5071241;28;20041;-64
2022/01/20 06:58:22;;;;;;;1999.90;999.90;;;2.90;99.90;;;;;;5072179;28;20066;-65
2022/01/20 07:00:48;;;;;;;1999.90;999.90;;;2.90;99.90;;;;;;5054538;28;20258;-63
2022/01/20 07:03:15;;;;;;;1999.90;999.90;;;2.60;99.90;;;;;;5071034;28;20119;-63
2022/01/20 07:05:40;;;;;;;1999.90;999.90;;;2.00;99.90;;;;;;5057269;28;20091;-65
2022/01/20 07:08:06;;;;;;;1999.90;999.90;;;1.70;99.90;;;;;;5053313;28;20471;-65
2022/01/20 07:10:32;;;;;;;1999.90;999.90;;;1.70;99.90;;;;;;5070482;28;20106;-65
2022/01/20 07:12:58;;;;;;;1999.90;999.90;;;1.90;99.90;;;;;;5072966;28;20049;-64
2022/01/20 07:15:24;;;;;;;1999.90;999.90;;;1.90;99.90;;;;;;5058395;28;20057;-65
2022/01/20 07:17:51;;;;;;;1999.90;999.90;;;1.90;99.90;;;;;;5053275;28;20067;-65
2022/01/20 07:20:19;;;;;;;1999.90;999.90;;;2.00;99.90;;;;;;5051456;28;20045;-65
2022/01/20 07:22:59;;;;;;;1999.90;999.90;;;2.00;99.90;;;;;;5051660;28;20506;-65
2022/01/20 07:25:26;;;;;;;1999.90;999.90;;;2.00;99.90;;;;;;5050673;28;20052;-65
2022/01/20 07:27:54;;;;;;;1999.90;999.90;;;2.00;99.90;;;;;;5062741;28;20064;-64
2022/01/20 07:30:20;;;;;;;1999.90;999.90;;;2.10;99.90;;;;;;5058479;28;20483;-64
2022/01/20 07:32:47;;;;;;;1999.90;999.90;;;2.20;99.90;;;;;;5051440;28;20539;-65
2022/01/20 07:35:18;;;;;;;1999.90;999.90;;;2.20;99.90;;;;;;5051555;28;20048;-64
2022/01/20 07:37:45;;;;;;;1999.90;999.90;;;2.40;99.90;;;;;;5070509;28;20059;-64
2022/01/20 07:40:12;;;;;;;1999.90;999.90;;;2.40;99.90;;;;;;5071200;28;20501;-65
2022/01/20 07:42:37;;;;;;;1999.90;999.90;;;2.40;99.90;;;;;;5072632;28;20127;-65
2022/01/20 07:45:09;;;;;;;1999.90;999.90;;;2.40;99.90;;;;;;5048649;28;20040;-65
2022/01/20 07:47:43;;;;;;;1999.90;999.90;;;2.30;99.90;;;;;;5071454;28;20131;-65
2022/01/20 07:50:09;;;;;;;1999.90;999.90;;;2.30;99.90;;;;;;5071332;28;20131;-65
2022/01/20 07:52:35;;;;;;;1999.90;999.90;;;2.40;99.90;;;;;;5072158;28;20044;-65
2022/01/20 07:55:02;;;;;;;1999.90;999.90;;;2.30;99.90;;;;;;5054020;28;20048;-63
2022/01/20 07:57:28;;;;;;;1999.90;999.90;;;2.30;99.90;;;;;;5051658;28;20084;-64
2022/01/20 07:59:54;;;;;;;1999.90;999.90;;;2.30;99.90;;;;;;5050818;28;20135;-63
2022/01/20 08:02:26;;;;;;;1999.90;999.90;;;2.40;99.90;;;;;;5038546;28;20071;-64
2022/01/20 08:04:52;;;;;;;1999.90;999.90;;;2.40;99.90;;;;;;5046657;28;20291;-63
2022/01/20 08:07:18;;;;;;;1999.90;999.90;;;2.50;99.90;;;;;;5050375;28;20111;-63
2022/01/20 08:09:45;;;;;;;1999.90;999.90;;;2.50;99.90;;;;;;5069967;28;20048;-64
2022/01/20 08:12:18;;;;;;;1999.90;999.90;;;2.60;99.90;;;;;;5054382;28;20041;-63
2022/01/20 08:14:47;;;;;;;1999.90;999.90;;;2.60;99.90;;;;;;5055970;28;20045;-64
2022/01/20 08:17:20;;;;;;;1999.90;999.90;;;2.70;99.90;;;;;;5051861;28;20033;-63
2022/01/20 08:19:49;;;;;;;1999.90;999.90;;;2.60;99.90;;;;;;5072148;28;20041;-63
2022/01/20 08:22:15;;;;;;;1999.90;999.90;;;2.60;99.90;;;;;;5055136;28;20437;-63
2022/01/20 08:24:41;;;;;;;1999.90;999.90;;;2.70;99.90;;;;;;5055310;28;20102;-64
2022/01/20 08:27:10;;;;;;;1999.90;999.90;;;2.60;99.90;;;;;;5070998;28;20101;-64
2022/01/20 08:29:36;;;;;;;1999.90;999.90;;;2.70;99.90;;;;;;5048181;28;20052;-64
2022/01/20 08:32:04;;;;;;;1999.90;999.90;;;2.70;99.90;;;;;;5034558;28;20488;-64
2022/01/20 08:34:35;;;;;;;;;;;2.80;99.90;;;;;;5034399;28;20133;-64
2022/01/20 08:37:42;;;;;;;1999.90;999.90;;;2.90;99.90;;;;;;5038459;28;19935;-65
2022/01/20 08:40:12;;;;;;;1999.90;999.90;;;2.90;99.90;;;;;;5054590;28;20052;-66
2022/01/20 08:42:40;;;;;;;1999.90;999.90;;;3.00;99.90;;;;;;5050711;28;20495;-65
2022/01/20 08:45:09;;;;;;;1999.90;999.90;;;3.00;99.90;;;;;;5052079;28;20057;-65
2022/01/20 08:47:35;;;;;;;1999.90;999.90;;;3.00;99.90;;;;;;5055219;28;20044;-64
2022/01/20 08:50:05;;;;;;;1999.90;999.90;;;3.00;99.90;;;;;;5053444;28;20129;-64
2022/01/20 08:52:31;;;;;;;1999.90;999.90;;;3.10;99.90;;;;;;5054511;28;20045;-64
2022/01/20 08:54:58;;;;;;;1999.90;999.90;;;3.10;99.90;;;;;;5052938;28;20476;-64
2022/01/20 08:57:45;;;;;;;1999.90;999.90;;;3.10;99.90;;;;;;5069162;28;20045;-66
2022/01/20 09:00:12;;;;;;;1999.90;999.90;;;3.20;99.90;;;;;;5061245;28;20547;-65
2022/01/20 09:02:51;;;;;;;1999.90;999.90;;;3.20;99.90;;;;;;5050813;28;20041;-65
2022/01/20 09:05:17;;;;;;;1999.90;999.90;;;3.20;99.90;;;;;;5046482;28;20120;-65
2022/01/20 09:07:50;;;;;;;1999.90;999.90;;;3.20;99.90;;;;;;5053860;28;20052;-64
2022/01/20 09:10:19;;;;;;;1999.90;999.90;;;3.30;99.90;;;;;;5036116;28;20063;-64
2022/01/20 09:15:28;;;;;;;1999.90;999.90;;;3.40;99.90;;;;;;5046895;28;20200;-64
2022/01/20 09:18:00;;;;;;;1999.90;999.90;;;3.40;99.90;;;;;;5056339;28;20432;-64
2022/01/20 09:20:27;;;;;;;1999.90;999.90;;;3.40;99.90;;;;;;5034090;28;20148;-65
2022/01/20 09:22:55;;;;;;;1999.90;999.90;;;3.50;99.90;;;;;;5051260;28;20103;-64
2022/01/20 09:25:21;;;;;;;1999.90;999.90;;;3.60;99.90;;;;;;5053338;28;20044;-64
2022/01/20 09:27:50;;;;;;;1999.90;999.90;;;3.70;99.90;;;;;;5053807;28;20037;-64
2022/01/20 09:30:19;;;;;;;1999.90;999.90;;;3.80;99.90;;;;;;5026223;28;20053;-65
2022/01/20 09:32:58;;;;;;;1999.90;999.90;;;3.70;99.90;;;;;;5052936;28;20140;-65
2022/01/20 09:35:30;;;;;;;1999.90;999.90;;;3.60;99.90;;;;;;5053665;28;20502;-65
2022/01/20 09:37:57;;;;;;;1999.90;999.90;;;3.20;99.90;;;;;;5052550;28;20128;-65
2022/01/20 09:40:23;;;;;;;1999.90;999.90;;;3.00;99.90;;;;;;5063072;28;20036;-65
2022/01/20 09:42:52;;;;;;;1999.90;999.90;;;2.60;99.90;;;;;;5071949;28;20049;-65
2022/01/20 09:45:18;;;;;;;1999.90;999.90;;;2.60;99.90;;;;;;5050504;28;20245;-64
2022/01/20 09:47:46;;;;;;;1999.90;999.90;;;2.50;99.90;;;;;;5053268;28;20075;-63
2022/01/20 09:50:29;;;;;;;1999.90;999.90;;;2.50;99.90;;;;;;5042784;28;20479;-65
2022/01/20 09:53:16;;;;;;;1999.90;999.90;;;2.50;99.90;;;;;;5036170;28;20060;-66
2022/01/20 09:56:03;;;;;;;1999.90;999.90;;;2.60;99.90;;;;;;5072452;28;20394;-64
2022/01/20 09:58:29;;;;;;;1999.90;999.90;;;2.80;99.90;;;;;;5054787;28;20059;-65
2022/01/20 10:00:58;;;;;;;1999.90;999.90;;;2.90;99.90;;;;;;5074062;28;20059;-66
2022/01/20 10:03:26;;;;;;;1999.90;999.90;;;3.10;99.90;;;;;;5063416;28;20036;-65
2022/01/20 10:05:53;;;;;;;1999.90;999.90;;;3.40;99.90;;;;;;5039549;28;20071;-65
2022/01/20 10:08:23;;;;;;;1999.90;999.90;;;3.60;99.90;;;;;;5072538;28;20041;-65
2022/01/20 10:11:04;;;;;;;1999.90;999.90;;;3.90;99.90;;;;;;5072784;28;20048;-65
2022/01/20 10:13:46;;;;;;;1999.90;999.90;;;3.90;99.90;;;;;;5051144;28;20388;-65
2022/01/20 10:16:18;;;;;;;1999.90;999.90;;;3.90;99.90;;;;;;5060599;28;20138;-64
2022/01/20 10:18:48;;;;;;;1999.90;999.90;;;4.50;99.90;;;;;;5072309;28;20475;-65
2022/01/20 10:21:16;;;;;;;1999.90;999.90;;;5.00;99.90;;;;;;5054185;28;20624;-64
2022/01/20 10:23:49;;;;;;;1999.90;999.90;;;5.90;99.90;;;;;;5059583;28;20049;-65
2022/01/20 10:26:31;;;;;;;1999.90;999.90;;;5.50;99.90;;;;;;5051911;28;20111;-66
2022/01/20 10:29:05;;;;;;;1999.90;999.90;;;5.50;99.90;;;;;;5052134;28;20044;-65
2022/01/20 10:31:49;;;;;;;1999.90;999.90;;;5.50;99.90;;;;;;5071591;28;20114;-65
2022/01/20 10:34:30;;;;;;;1999.90;999.90;;;5.70;99.90;;;;;;5052646;28;20045;-66
2022/01/20 10:37:04;;;;;;;1999.90;999.90;;;5.90;99.90;;;;;;5049209;28;20046;-65
2022/01/20 10:39:37;;;;;;;1999.90;999.90;;;5.70;99.90;;;;;;5022589;28;20279;-65
2022/01/20 10:42:07;;;;;;;1999.90;999.90;;;5.40;99.90;;;;;;5031227;28;20052;-64
2022/01/20 10:44:46;;;;;;;1999.90;999.90;;;4.90;99.90;;;;;;5041301;28;20071;-63
2022/01/20 10:47:14;;;;;;;1999.90;999.90;;;4.70;99.90;;;;;;5043509;28;20091;-66
2022/01/20 10:49:42;;;;;;;1999.90;999.90;;;5.00;99.90;;;;;;5048617;28;20049;-65
2022/01/20 10:52:10;;;;;;;1999.90;999.90;;;5.10;99.90;;;;;;5066904;28;20123;-65
2022/01/20 10:54:43;;;;;;;1999.90;999.90;;;5.10;99.90;;;;;;5072630;28;20433;-65
2022/01/20 10:57:15;;;;;;;1999.90;999.90;;;5.20;99.90;;;;;;5071579;28;20041;-65
2022/01/20 10:59:50;;;;;;;1999.90;999.90;;;4.70;99.90;;;;;;5064191;28;20495;-65
2022/01/20 11:02:22;;;;;;;1999.90;999.90;;;4.30;99.90;;;;;;5050997;28;20052;-64
2022/01/20 11:04:48;;;;;;;1999.90;999.90;;;4.30;99.90;;;;;;5053719;28;20044;-65
2022/01/20 11:07:15;;;;;;;1999.90;999.90;;;4.30;99.90;;;;;;5071420;28;20145;-64
2022/01/20 11:09:51;;;;;;;1999.90;999.90;;;4.40;99.90;;;;;;5055018;28;20045;-64
2022/01/20 11:12:38;;;;;;;1999.90;999.90;;;4.50;99.90;;;;;;5050769;28;20045;-65
2022/01/20 11:15:12;;;;;;;1999.90;999.90;;;4.80;99.90;;;;;;5052396;28;20040;-64
2022/01/20 11:17:41;;;;;;;1999.90;999.90;;;4.80;99.90;;;;;;5060388;28;20076;-66
2022/01/20 11:20:12;;;;;;;1999.90;999.90;;;4.90;99.90;;;;;;5051560;28;20515;-65
2022/01/20 11:22:53;;;;;;;1999.90;999.90;;;5.00;99.90;;;;;;5043266;28;20037;-63
2022/01/20 11:25:24;;;;;;;1999.90;999.90;;;5.20;99.90;;;;;;5051698;28;20048;-64
2022/01/20 11:28:05;;;;;;;1999.90;999.90;;;5.30;99.90;;;;;;5031974;28;20527;-65
2022/01/20 11:30:56;;;;;;;1999.90;999.90;;;5.40;99.90;;;;;;5063738;28;20467;-65
2022/01/20 11:33:35;;;;;;;1999.90;999.90;;;5.30;99.90;;;;;;5068540;28;20044;-65
2022/01/20 11:36:02;;;;;;;1999.90;999.90;;;5.20;99.90;;;;;;5066962;28;20094;-63
2022/01/20 11:38:39;;;;;;;1999.90;999.90;;;4.70;99.90;;;;;;5056248;28;20080;-64
2022/01/20 11:41:05;;;;;;;1999.90;999.90;;;4.40;99.90;;;;;;5052241;28;20048;-64
2022/01/20 11:43:41;;;;;;;1999.90;999.90;;;4.20;99.90;;;;;;5047639;28;20056;-64
2022/01/20 11:46:16;;;;;;;1999.90;999.90;;;4.00;99.90;;;;;;5052100;28;20479;-65
2022/01/20 11:49:02;;;;;;;1999.90;999.90;;;4.00;99.90;;;;;;5052690;28;20056;-65
2022/01/20 11:51:55;;;;;;;1999.90;999.90;;;4.10;99.90;;;;;;5051657;28;20445;-64
2022/01/20 11:54:29;;;;;;;;;;;4.20;99.90;;;;;;5072661;28;20056;-65
2022/01/20 11:57:07;;;;;;;1999.90;999.90;;;4.30;99.90;;;;;;5072817;28;19920;-65
2022/01/20 11:59:40;;;;;;;1999.90;999.90;;;4.50;99.90;;;;;;5071535;28;20052;-65
2022/01/20 12:02:06;;;;;;;1999.90;999.90;;;4.40;99.90;;;;;;5069885;28;20079;-66
2022/01/20 12:04:38;;;;;;;1999.90;999.90;;;4.50;99.90;;;;;;5065886;28;20056;-65
2022/01/20 12:07:23;;;;;;;1999.90;999.90;;;4.60;99.90;;;;;;5066540;28;20067;-64
2022/01/20 12:09:50;;;;;;;1999.90;999.90;;;4.70;99.90;;;;;;5052247;28;20044;-64
2022/01/20 12:12:23;;;;;;;1999.90;999.90;;;4.60;99.90;;;;;;5049245;28;20098;-64
2022/01/20 12:14:49;;;;;;;;;;;4.60;99.90;;;;;;5044427;28;20066;-64
2022/01/20 12:17:15;;;;;;;1999.90;999.90;;;4.50;99.90;;;;;;5051841;28;20402;-63
2022/01/20 12:19:43;;;;;;;1999.90;999.90;;;4.30;99.90;;;;;;5048736;28;20116;-62
2022/01/20 12:22:09;;;;;;;1999.90;999.90;;;4.20;99.90;;;;;;5049806;28;20507;-63
2022/01/20 12:24:36;;;;;;;1999.90;999.90;;;4.20;99.90;;;;;;5052147;28;20118;-63
2022/01/20 12:27:14;;;;;;;1999.90;999.90;;;4.30;99.90;;;;;;5051581;28;20399;-62
2022/01/20 12:29:40;;;;;;;1999.90;999.90;;;4.40;99.90;;;;;;5063633;28;20049;-64
2022/01/20 12:32:18;;;;;;;1999.90;999.90;;;4.40;99.90;;;;;;5050893;28;20067;-64
2022/01/20 12:34:56;;;;;;;1999.90;999.90;;;4.40;99.90;;;;;;5051537;28;20138;-63
2022/01/20 12:37:32;;;;;;;1999.90;999.90;;;4.50;99.90;;;;;;5051751;28;20065;-63
2022/01/20 12:39:58;;;;;;;1999.90;999.90;;;4.50;99.90;;;;;;5051444;28;20052;-64
2022/01/20 12:42:33;;;;;;;1999.90;999.90;;;4.60;99.90;;;;;;5051988;28;20049;-64
2022/01/20 12:45:55;;;;;;;1999.90;999.90;;;4.80;99.90;;;;;;5051738;28;20048;-64
2022/01/20 12:47:50;;;;;;;1999.90;999.90;;;5.00;99.90;;;;;;5031462;28;20050;-64
2022/01/20 12:50:16;;;;;;;1999.90;999.90;;;5.00;99.90;;;;;;5032188;28;20080;-64
2022/01/20 12:52:47;;;;;;;1999.90;999.90;;;5.10;99.90;;;;;;5031815;28;20037;-63
2022/01/20 12:55:13;;;;;;;1999.90;999.90;;;5.10;99.90;;;;;;5054641;28;20053;-64
2022/01/20 12:57:38;;;;;;;1999.90;999.90;;;5.00;99.90;;;;;;5075740;28;20271;-64
2022/01/20 13:00:07;;;;;;;1999.90;999.90;;;4.90;99.90;;;;;;5075520;28;20080;-64
2022/01/20 13:02:33;;;;;;;1999.90;999.90;;;4.80;99.90;;;;;;5074776;28;20055;-63
2022/01/20 13:05:01;;;;;;;1999.90;999.90;;;4.60;99.90;;;;;;5066122;28;20055;-64
2022/01/20 13:07:29;;;;;;;1999.90;999.90;;;4.50;99.90;;;;;;5054811;28;20089;-63
2022/01/20 13:10:05;;;;;;;1999.90;999.90;;;4.40;99.90;;;;;;5054616;28;20126;-63
2022/01/20 13:12:35;;;;;;;1999.90;999.90;;;4.40;99.90;;;;;;5055228;28;20120;-63
2022/01/20 13:15:03;;;;;;;1999.90;999.90;;;4.40;99.90;;;;;;5065687;28;20111;-63